Time;durP1;ratioP1;P1;durP2;ratioP2;P2;SDS_P1;SDS_P2;PMS_P1;PMS_P2;Temp;Humidity;BMP_temperature;BMP_pressure;BME280_temperature;BME280_humidity;BME280_pressure;Samples;Min_cycle;Max_cycle;Signal;HPM_P1;HPM_P2
2022/11/25 00:01:25;;;;;;;;;3.33;3.33;;;;;;;;5117454;27;45651;-69
2022/11/25 00:03:52;;;;;;;;;5.00;4.00;;;;;;;;5134103;27;46244;-67
2022/11/25 00:06:18;;;;;;;;;3.67;3.67;;;;;;;;5130757;27;45599;-69
2022/11/25 00:08:44;;;;;;;;;4.33;4.33;;;;;;;;5137117;27;45684;-68
2022/11/25 00:11:10;;;;;;;;;4.33;3.00;;;;;;;;5133713;27;45315;-69
2022/11/25 00:13:36;;;;;;;;;3.00;3.00;;;;;;;;5128989;27;45367;-69
2022/11/25 00:16:02;;;;;;;;;4.00;4.00;;;;;;;;5133461;27;45402;-71
2022/11/25 00:18:27;;;;;;;;;5.00;4.67;;;;;;;;5136635;27;45773;-72
2022/11/25 00:20:53;;;;;;;;;4.00;4.00;;;;;;;;5132059;27;45619;-68
2022/11/25 00:23:18;;;;;;;;;4.00;3.00;;;;;;;;5117806;27;46204;-70
2022/11/25 00:25:43;;;;;;;;;4.00;4.00;;;;;;;;5124010;27;45367;-68
2022/11/25 00:28:08;;;;;;;;;6.00;3.67;;;;;;;;5134126;27;45374;-68
2022/11/25 00:30:34;;;;;;;;;4.33;3.33;;;;;;;;5124699;27;45654;-67
2022/11/25 00:32:59;;;;;;;;;2.67;2.67;;;;;;;;5126649;27;46379;-68
2022/11/25 00:35:24;;;;;;;;;3.67;3.33;;;;;;;;5130827;27;45768;-69
2022/11/25 00:37:49;;;;;;;;;4.67;2.67;;;;;;;;5124783;27;45639;-69
2022/11/25 00:40:15;;;;;;;;;4.33;3.00;;;;;;;;5131141;27;45362;-68
2022/11/25 00:45:24;;;;;;;;;3.00;1.33;;;;;;;;5119872;27;45738;-67
2022/11/25 00:47:49;;;;;;;;;8.00;8.00;;;;;;;;5128713;27;45630;-68
2022/11/25 00:50:14;;;;;;;;;4.00;2.33;;;;;;;;5130718;27;45581;-67
2022/11/25 00:52:39;;;;;;;;;2.00;2.00;;;;;;;;5130620;27;45636;-68
2022/11/25 00:55:05;;;;;;;;;3.00;3.00;;;;;;;;5117684;27;45593;-68
2022/11/25 00:57:30;;;;;;;;;4.00;3.00;;;;;;;;5127665;27;45591;-67
2022/11/25 00:59:55;;;;;;;;;1.33;1.33;;;;;;;;5102148;27;47411;-68
2022/11/25 01:02:21;;;;;;;;;3.67;3.67;;;;;;;;5134972;27;45682;-70
2022/11/25 01:04:46;;;;;;;;;2.67;2.67;;;;;;;;5131046;27;46185;-68
2022/11/25 01:07:12;;;;;;;;;3.00;3.00;;;;;;;;5129490;27;45660;-68
2022/11/25 01:09:37;;;;;;;;;2.67;2.67;;;;;;;;5115678;27;45617;-69
2022/11/25 01:12:03;;;;;;;;;1.00;1.00;;;;;;;;5126806;27;46399;-67
2022/11/25 01:14:28;;;;;;;;;3.33;2.33;;;;;;;;5123153;27;45794;-69
2022/11/25 01:16:53;;;;;;;;;3.00;1.67;;;;;;;;5091184;27;45405;-67
2022/11/25 01:19:19;;;;;;;;;5.00;2.00;;;;;;;;5129664;27;45721;-69
2022/11/25 01:21:44;;;;;;;;;3.00;1.33;;;;;;;;5112960;27;47987;-69
2022/11/25 01:24:11;;;;;;;;;1.33;1.00;;;;;;;;5116841;27;45819;-68
2022/11/25 01:26:36;;;;;;;;;3.33;2.67;;;;;;;;5117994;27;45833;-68
2022/11/25 01:29:03;;;;;;;;;4.33;3.00;;;;;;;;5118702;27;45378;-66
2022/11/25 01:31:30;;;;;;;;;5.33;2.00;;;;;;;;5122560;27;46350;-67
2022/11/25 01:33:56;;;;;;;;;2.00;2.00;;;;;;;;5122536;27;45341;-69
2022/11/25 01:36:22;;;;;;;;;3.00;2.00;;;;;;;;5129021;27;45440;-70
2022/11/25 01:38:51;;;;;;;;;4.00;3.00;;;;;;;;5109881;27;47171;-68
2022/11/25 01:41:17;;;;;;;;;4.33;3.00;;;;;;;;5110020;27;46600;-69
2022/11/25 01:43:42;;;;;;;;;3.00;3.00;;;;;;;;5126077;27;45919;-70
2022/11/25 01:46:22;;;;;;;;;5.00;3.00;;;;;;;;5130058;27;45349;-69
2022/11/25 01:49:02;;;;;;;;;4.00;4.00;;;;;;;;5130547;27;45340;-67
2022/11/25 01:51:33;;;;;;;;;5.00;2.00;;;;;;;;5116886;27;45743;-67
2022/11/25 01:54:00;;;;;;;;;2.33;1.67;;;;;;;;5131836;27;45301;-69
2022/11/25 01:56:27;;;;;;;;;6.00;3.00;;;;;;;;5109575;27;45917;-68
2022/11/25 01:58:53;;;;;;;;;1.00;1.00;;;;;;;;5128252;27;45433;-67
2022/11/25 02:01:20;;;;;;;;;4.33;3.33;;;;;;;;5122504;27;46092;-68
2022/11/25 02:03:47;;;;;;;;;2.00;2.00;;;;;;;;5128975;27;45303;-68
2022/11/25 02:06:20;;;;;;;;;3.33;2.00;;;;;;;;5133043;27;45373;-68
2022/11/25 02:08:48;;;;;;;;;4.67;2.67;;;;;;;;5124962;27;46168;-68
2022/11/25 02:11:16;;;;;;;;;1.33;1.33;;;;;;;;5133271;27;45457;-68
2022/11/25 02:13:42;;;;;;;;;6.00;4.00;;;;;;;;5122637;27;45522;-69
2022/11/25 02:16:07;;;;;;;;;2.00;2.00;;;;;;;;5129715;27;45434;-69
2022/11/25 02:18:32;;;;;;;;;4.67;4.00;;;;;;;;5115508;27;45817;-70
2022/11/25 02:20:57;;;;;;;;;3.00;3.00;;;;;;;;5128950;27;46161;-68
2022/11/25 02:23:24;;;;;;;;;4.00;2.00;;;;;;;;5126864;27;45838;-68
2022/11/25 02:25:50;;;;;;;;;3.33;2.00;;;;;;;;5132491;27;45416;-67
2022/11/25 02:28:20;;;;;;;;;7.00;4.00;;;;;;;;5126754;27;45880;-66
2022/11/25 02:30:45;;;;;;;;;3.00;2.00;;;;;;;;5131326;27;46219;-67
2022/11/25 02:33:11;;;;;;;;;4.33;3.00;;;;;;;;5130823;27;45385;-68
2022/11/25 02:35:39;;;;;;;;;3.00;3.00;;;;;;;;5119138;27;45999;-67
2022/11/25 02:38:07;;;;;;;;;4.00;1.67;;;;;;;;5124180;27;45414;-67
2022/11/25 02:40:39;;;;;;;;;3.67;3.00;;;;;;;;5114844;27;45653;-68
2022/11/25 02:43:04;;;;;;;;;3.00;2.67;;;;;;;;5109199;27;45370;-67
2022/11/25 02:45:49;;;;;;;;;4.00;4.00;;;;;;;;5125013;27;45529;-67
2022/11/25 02:48:14;;;;;;;;;4.67;4.33;;;;;;;;5127935;27;45932;-68
2022/11/25 02:50:39;;;;;;;;;3.67;2.00;;;;;;;;5122763;27;45316;-67
2022/11/25 02:53:05;;;;;;;;;3.33;3.00;;;;;;;;5133998;27;45329;-68
2022/11/25 02:55:30;;;;;;;;;4.00;2.67;;;;;;;;5128050;27;45282;-68
2022/11/25 02:57:55;;;;;;;;;3.00;3.00;;;;;;;;5133616;27;45809;-67
2022/11/25 03:00:20;;;;;;;;;6.67;4.00;;;;;;;;5133664;27;45634;-69
2022/11/25 03:02:46;;;;;;;;;3.67;3.00;;;;;;;;5130877;27;45268;-70
2022/11/25 03:05:11;;;;;;;;;4.00;2.67;;;;;;;;5132025;27;45375;-67
2022/11/25 03:07:38;;;;;;;;;4.00;1.67;;;;;;;;5133058;27;45323;-68
2022/11/25 03:10:03;;;;;;;;;4.00;2.33;;;;;;;;5133494;27;45729;-69
2022/11/25 03:12:29;;;;;;;;;4.00;2.67;;;;;;;;5119232;27;45557;-67
2022/11/25 03:14:54;;;;;;;;;5.00;2.33;;;;;;;;5124889;27;45422;-68
2022/11/25 03:17:19;;;;;;;;;2.33;2.00;;;;;;;;5128792;27;45618;-69
2022/11/25 03:19:45;;;;;;;;;6.00;2.33;;;;;;;;5129554;27;45480;-67
2022/11/25 03:22:10;;;;;;;;;4.67;4.00;;;;;;;;5129075;27;45503;-67
2022/11/25 03:24:35;;;;;;;;;4.33;2.33;;;;;;;;5107224;27;45402;-68
2022/11/25 03:27:00;;;;;;;;;4.33;3.00;;;;;;;;5129626;27;45374;-67
2022/11/25 03:29:26;;;;;;;;;4.33;2.33;;;;;;;;5119155;27;45541;-67
2022/11/25 03:31:51;;;;;;;;;4.67;3.00;;;;;;;;5132712;27;45709;-67
2022/11/25 03:34:16;;;;;;;;;1.00;1.00;;;;;;;;5129797;27;45347;-67
2022/11/25 03:36:41;;;;;;;;;5.33;4.00;;;;;;;;5131479;27;45648;-68
2022/11/25 03:39:06;;;;;;;;;2.33;2.00;;;;;;;;5131013;27;45754;-68
2022/11/25 03:41:32;;;;;;;;;5.00;3.67;;;;;;;;5135200;27;45434;-69
2022/11/25 03:43:57;;;;;;;;;3.67;2.00;;;;;;;;5130362;27;45755;-67
2022/11/25 03:46:22;;;;;;;;;2.00;2.00;;;;;;;;5134561;27;45508;-67
2022/11/25 03:48:47;;;;;;;;;6.00;2.67;;;;;;;;5135523;27;45469;-68
2022/11/25 03:51:13;;;;;;;;;3.33;2.00;;;;;;;;5131189;27;45746;-67
2022/11/25 03:53:38;;;;;;;;;3.00;2.33;;;;;;;;5131353;27;45453;-68
2022/11/25 03:56:03;;;;;;;;;6.00;3.00;;;;;;;;5135363;27;45469;-68
2022/11/25 03:58:29;;;;;;;;;4.00;3.00;;;;;;;;5127580;27;46059;-68
2022/11/25 04:00:58;;;;;;;;;4.00;3.00;;;;;;;;5136266;27;45750;-68
2022/11/25 04:03:23;;;;;;;;;4.00;2.33;;;;;;;;5112808;27;45376;-66
2022/11/25 04:05:48;;;;;;;;;5.00;3.00;;;;;;;;5124438;27;45523;-67
2022/11/25 04:08:14;;;;;;;;;5.00;2.00;;;;;;;;5137123;27;45565;-69
2022/11/25 04:10:39;;;;;;;;;4.00;3.00;;;;;;;;5135430;27;45665;-69
2022/11/25 04:13:04;;;;;;;;;5.33;3.00;;;;;;;;5134322;27;45304;-68
2022/11/25 04:15:29;;;;;;;;;6.67;3.00;;;;;;;;5131834;27;45605;-68
2022/11/25 04:17:54;;;;;;;;;3.00;2.00;;;;;;;;5132674;27;46378;-68
2022/11/25 04:20:20;;;;;;;;;5.67;4.00;;;;;;;;5131740;27;45436;-68
2022/11/25 04:22:45;;;;;;;;;3.00;2.67;;;;;;;;5132328;27;45383;-69
2022/11/25 04:25:11;;;;;;;;;4.33;4.00;;;;;;;;5118364;27;45453;-67
2022/11/25 04:27:36;;;;;;;;;5.00;3.67;;;;;;;;5124636;27;45402;-67
2022/11/25 04:30:01;;;;;;;;;5.67;3.00;;;;;;;;5125412;27;45359;-69
2022/11/25 04:32:26;;;;;;;;;1.67;1.67;;;;;;;;5126274;27;45476;-68
2022/11/25 04:34:52;;;;;;;;;5.33;4.00;;;;;;;;5133295;27;45417;-67
2022/11/25 04:37:17;;;;;;;;;3.00;3.00;;;;;;;;5135440;27;46546;-69
2022/11/25 04:39:42;;;;;;;;;2.67;2.67;;;;;;;;5128041;27;45859;-67
2022/11/25 04:44:51;;;;;;;;;5.33;3.00;;;;;;;;5125999;27;45494;-67
2022/11/25 04:47:17;;;;;;;;;4.00;2.67;;;;;;;;5125961;27;45351;-67
2022/11/25 04:49:42;;;;;;;;;3.00;3.00;;;;;;;;5127833;27;45677;-69
2022/11/25 04:52:07;;;;;;;;;4.00;1.00;;;;;;;;5110828;27;45919;-69
2022/11/25 04:54:32;;;;;;;;;6.67;4.00;;;;;;;;5129216;27;45764;-69
2022/11/25 04:56:58;;;;;;;;;5.67;2.00;;;;;;;;5108599;27;48711;-67
2022/11/25 04:59:38;;;;;;;;;4.00;1.67;;;;;;;;5105956;27;45368;-69
2022/11/25 05:02:04;;;;;;;;;5.67;3.67;;;;;;;;5116223;27;45462;-69
2022/11/25 05:04:29;;;;;;;;;3.00;3.00;;;;;;;;5122750;27;45629;-68
2022/11/25 05:06:55;;;;;;;;;6.00;4.00;;;;;;;;5120185;27;46098;-67
2022/11/25 05:09:20;;;;;;;;;5.67;4.67;;;;;;;;5117529;27;45379;-67
2022/11/25 05:11:45;;;;;;;;;4.67;3.00;;;;;;;;5116118;27;45395;-67
2022/11/25 05:14:10;;;;;;;;;6.00;5.00;;;;;;;;5120799;27;45418;-69
2022/11/25 05:16:36;;;;;;;;;2.67;2.00;;;;;;;;5116095;27;45335;-68
2022/11/25 05:19:01;;;;;;;;;4.67;3.67;;;;;;;;5105080;27;45764;-68
2022/11/25 05:21:26;;;;;;;;;4.00;4.00;;;;;;;;5116951;27;45621;-67
2022/11/25 05:23:52;;;;;;;;;5.67;5.67;;;;;;;;5124505;27;45764;-69
2022/11/25 05:26:18;;;;;;;;;4.33;2.33;;;;;;;;5126034;27;46485;-66
2022/11/25 05:28:43;;;;;;;;;5.33;2.67;;;;;;;;5125252;27;45690;-69
2022/11/25 05:31:08;;;;;;;;;2.33;2.33;;;;;;;;5121320;27;45473;-69
2022/11/25 05:33:33;;;;;;;;;6.00;3.33;;;;;;;;5117609;27;45794;-67
2022/11/25 05:36:00;;;;;;;;;5.00;2.00;;;;;;;;5118606;27;46107;-68
2022/11/25 05:38:26;;;;;;;;;7.67;7.67;;;;;;;;5124489;27;45573;-68
2022/11/25 05:40:52;;;;;;;;;5.33;3.00;;;;;;;;5116696;27;46000;-67
2022/11/25 05:43:17;;;;;;;;;5.00;3.00;;;;;;;;5103647;27;45921;-69
2022/11/25 05:45:43;;;;;;;;;5.33;4.00;;;;;;;;5104214;27;46864;-69
2022/11/25 05:48:08;;;;;;;;;3.33;2.67;;;;;;;;5126620;27;45655;-68
2022/11/25 05:50:33;;;;;;;;;4.00;3.00;;;;;;;;5123921;27;45940;-68
2022/11/25 05:52:58;;;;;;;;;8.00;4.33;;;;;;;;5126789;27;47250;-67
2022/11/25 05:55:24;;;;;;;;;6.00;4.00;;;;;;;;5123551;27;46319;-69
2022/11/25 05:57:49;;;;;;;;;3.67;3.33;;;;;;;;5126257;27;45469;-69
2022/11/25 06:00:14;;;;;;;;;4.33;3.00;;;;;;;;5123289;27;45667;-71
2022/11/25 06:02:39;;;;;;;;;5.67;3.00;;;;;;;;5128865;27;45343;-69
2022/11/25 06:05:05;;;;;;;;;7.00;3.67;;;;;;;;5127047;27;46135;-68
2022/11/25 06:07:30;;;;;;;;;6.67;6.67;;;;;;;;5113608;27;45553;-71
2022/11/25 06:09:55;;;;;;;;;6.67;4.67;;;;;;;;5103428;27;45412;-69
2022/11/25 06:12:21;;;;;;;;;6.00;4.67;;;;;;;;5124813;27;45715;-70
2022/11/25 06:14:46;;;;;;;;;6.00;2.67;;;;;;;;5129336;27;45389;-69
2022/11/25 06:17:11;;;;;;;;;8.67;5.00;;;;;;;;5129484;27;45345;-67
2022/11/25 06:19:36;;;;;;;;;2.67;1.00;;;;;;;;5133137;27;45409;-69
2022/11/25 06:22:02;;;;;;;;;3.67;3.67;;;;;;;;5128590;27;45905;-71
2022/11/25 06:24:27;;;;;;;;;3.00;1.00;;;;;;;;5113893;27;46711;-69
2022/11/25 06:26:52;;;;;;;;;5.00;4.67;;;;;;;;5115603;27;45410;-71
2022/11/25 06:29:17;;;;;;;;;6.67;4.00;;;;;;;;5133093;27;45767;-70
2022/11/25 06:31:43;;;;;;;;;6.33;4.00;;;;;;;;5134646;27;45473;-72
2022/11/25 06:34:08;;;;;;;;;7.67;5.00;;;;;;;;5133415;27;46134;-70
2022/11/25 06:36:33;;;;;;;;;9.33;3.33;;;;;;;;5134163;27;45474;-71
2022/11/25 06:38:59;;;;;;;;;4.33;3.00;;;;;;;;5129755;27;45779;-70
2022/11/25 06:41:24;;;;;;;;;5.67;4.00;;;;;;;;5128359;27;45884;-74
2022/11/25 06:43:49;;;;;;;;;7.67;4.67;;;;;;;;5128084;27;45730;-70
2022/11/25 06:46:16;;;;;;;;;7.67;3.00;;;;;;;;5136650;27;45324;-73
2022/11/25 06:48:41;;;;;;;;;8.67;4.67;;;;;;;;5130916;27;45395;-74
2022/11/25 06:51:08;;;;;;;;;7.00;4.67;;;;;;;;5132536;27;45347;-75
2022/11/25 06:53:33;;;;;;;;;8.33;5.00;;;;;;;;5138620;27;46651;-76
2022/11/25 06:56:03;;;;;;;;;4.67;4.00;;;;;;;;5126898;27;45738;-75
2022/11/25 06:58:29;;;;;;;;;12.67;7.00;;;;;;;;5139278;27;45674;-74
2022/11/25 07:00:59;;;;;;;;;7.00;6.00;;;;;;;;5122053;27;45513;-74
2022/11/25 07:03:24;;;;;;;;;13.33;7.00;;;;;;;;5128835;27;45747;-76
2022/11/25 07:05:49;;;;;;;;;8.67;4.67;;;;;;;;5111813;27;45862;-73
2022/11/25 07:08:15;;;;;;;;;8.67;4.33;;;;;;;;5141103;27;45610;-71
2022/11/25 07:10:40;;;;;;;;;6.33;3.00;;;;;;;;5141070;27;45941;-72
2022/11/25 07:13:05;;;;;;;;;7.33;5.00;;;;;;;;5129335;27;45727;-72
2022/11/25 07:15:32;;;;;;;;;5.33;3.00;;;;;;;;5124266;27;45929;-73
2022/11/25 07:17:58;;;;;;;;;7.33;4.00;;;;;;;;5130051;27;46661;-75
2022/11/25 07:20:24;;;;;;;;;8.33;6.00;;;;;;;;5139805;27;45422;-75
2022/11/25 07:22:49;;;;;;;;;5.00;5.00;;;;;;;;5103963;27;47040;-70
2022/11/25 07:25:14;;;;;;;;;5.33;4.67;;;;;;;;5115390;27;45754;-70
2022/11/25 07:27:39;;;;;;;;;7.33;5.00;;;;;;;;5130322;27;45814;-70
2022/11/25 07:30:05;;;;;;;;;4.00;3.67;;;;;;;;5112720;27;47472;-72
2022/11/25 07:32:32;;;;;;;;;7.67;4.67;;;;;;;;5108651;27;48186;-70
2022/11/25 07:34:57;;;;;;;;;10.33;5.00;;;;;;;;5124749;27;45868;-70
2022/11/25 07:37:22;;;;;;;;;8.00;4.00;;;;;;;;5121813;27;45647;-71
2022/11/25 07:39:48;;;;;;;;;6.33;5.67;;;;;;;;5122708;27;46843;-70
2022/11/25 07:42:13;;;;;;;;;2.67;2.00;;;;;;;;5125873;27;45762;-70
2022/11/25 07:44:38;;;;;;;;;6.67;4.33;;;;;;;;5130361;27;45789;-70
2022/11/25 07:47:04;;;;;;;;;9.67;7.33;;;;;;;;5122279;27;45555;-70
2022/11/25 07:49:29;;;;;;;;;13.33;11.67;;;;;;;;5113243;27;46912;-71
2022/11/25 07:51:56;;;;;;;;;7.00;2.33;;;;;;;;5131394;27;46232;-68
2022/11/25 07:54:21;;;;;;;;;7.00;4.67;;;;;;;;5135405;27;45804;-68
2022/11/25 07:56:48;;;;;;;;;11.00;9.00;;;;;;;;5124095;27;45920;-70
2022/11/25 07:59:15;;;;;;;;;9.67;9.00;;;;;;;;5128157;27;45811;-72
2022/11/25 08:01:41;;;;;;;;;13.67;9.00;;;;;;;;5129756;27;45971;-71
2022/11/25 08:04:07;;;;;;;;;11.00;8.67;;;;;;;;5129472;27;45439;-69
2022/11/25 08:06:36;;;;;;;;;12.33;9.67;;;;;;;;5124166;27;45782;-68
2022/11/25 08:09:01;;;;;;;;;9.67;7.00;;;;;;;;5130176;27;45975;-71
2022/11/25 08:11:28;;;;;;;;;9.00;7.33;;;;;;;;5107795;27;47301;-69
2022/11/25 08:13:53;;;;;;;;;10.67;10.67;;;;;;;;5125384;27;45510;-70
2022/11/25 08:16:20;;;;;;;;;6.67;5.00;;;;;;;;5108464;27;45489;-70
2022/11/25 08:18:45;;;;;;;;;7.00;5.00;;;;;;;;5122290;27;45806;-70
2022/11/25 08:21:11;;;;;;;;;8.67;8.67;;;;;;;;5121859;27;45896;-71
2022/11/25 08:23:37;;;;;;;;;11.00;5.00;;;;;;;;5101626;27;45632;-70
2022/11/25 08:26:03;;;;;;;;;6.67;5.00;;;;;;;;5121020;27;45652;-71
2022/11/25 08:28:29;;;;;;;;;5.00;5.00;;;;;;;;5122214;27;45697;-69
2022/11/25 08:31:00;;;;;;;;;5.00;3.33;;;;;;;;5122955;27;46722;-70
2022/11/25 08:33:25;;;;;;;;;7.00;6.00;;;;;;;;5114440;27;45994;-69
2022/11/25 08:35:54;;;;;;;;;14.00;7.00;;;;;;;;5120655;27;45078;-70
2022/11/25 08:38:19;;;;;;;;;8.00;7.33;;;;;;;;5118301;27;46145;-69
2022/11/25 08:40:45;;;;;;;;;7.67;5.00;;;;;;;;5128520;27;46759;-71
2022/11/25 08:43:11;;;;;;;;;11.00;4.50;;;;;;;;5131367;27;45992;-70
2022/11/25 08:45:37;;;;;;;;;5.50;5.50;;;;;;;;5100511;27;45519;-70
2022/11/25 08:48:02;;;;;;;;;8.00;6.00;;;;;;;;5119330;27;45756;-71
2022/11/25 08:50:27;;;;;;;;;10.67;8.00;;;;;;;;5112005;27;45688;-72
2022/11/25 08:52:53;;;;;;;;;8.67;7.00;;;;;;;;5128756;27;45898;-71
2022/11/25 08:55:18;;;;;;;;;7.67;5.00;;;;;;;;5113414;27;45658;-71
2022/11/25 08:57:43;;;;;;;;;8.33;8.00;;;;;;;;5108017;27;46372;-69
2022/11/25 09:00:09;;;;;;;;;8.33;4.33;;;;;;;;5114891;27;46867;-71
2022/11/25 09:02:35;;;;;;;;;10.67;8.33;;;;;;;;5100096;27;45474;-71
2022/11/25 09:05:00;;;;;;;;;7.33;6.00;;;;;;;;5131196;27;45459;-69
2022/11/25 09:07:25;;;;;;;;;14.67;9.00;;;;;;;;5113376;27;45995;-69
2022/11/25 09:09:51;;;;;;;;;9.67;7.67;;;;;;;;5126467;27;46032;-70
2022/11/25 09:12:16;;;;;;;;;9.33;7.00;;;;;;;;5126942;27;45742;-71
2022/11/25 09:14:41;;;;;;;;;9.67;6.67;;;;;;;;5120073;27;45308;-70
2022/11/25 09:17:07;;;;;;;;;8.00;8.00;;;;;;;;5126638;27;45402;-67
2022/11/25 09:19:33;;;;;;;;;6.67;3.33;;;;;;;;5117603;27;45554;-68
2022/11/25 09:21:58;;;;;;;;;10.67;3.67;;;;;;;;5115874;27;45736;-67
2022/11/25 09:24:23;;;;;;;;;6.33;5.00;;;;;;;;5118643;27;45910;-67
2022/11/25 09:26:49;;;;;;;;;5.33;5.33;;;;;;;;5128273;27;45850;-69
2022/11/25 09:29:15;;;;;;;;;4.33;4.33;;;;;;;;5118922;27;45525;-69
2022/11/25 09:31:40;;;;;;;;;7.67;4.00;;;;;;;;5123340;27;45451;-68
2022/11/25 09:34:07;;;;;;;;;3.67;3.67;;;;;;;;5123358;27;45503;-67
2022/11/25 09:36:32;;;;;;;;;8.00;4.00;;;;;;;;5131335;27;45846;-69
2022/11/25 09:38:57;;;;;;;;;8.67;7.00;;;;;;;;5125595;27;46379;-68
2022/11/25 09:47:42;;;;;;;;;8.00;5.67;;;;;;;;5114918;27;45653;-70
2022/11/25 09:50:28;;;;;;;;;5.00;5.00;;;;;;;;5101020;27;45764;-70
2022/11/25 09:52:56;;;;;;;;;6.33;4.67;;;;;;;;5126632;27;45724;-69
2022/11/25 09:55:24;;;;;;;;;8.33;6.00;;;;;;;;5125726;27;45497;-69
2022/11/25 09:57:52;;;;;;;;;9.00;6.33;;;;;;;;5123823;27;45397;-70
2022/11/25 10:00:18;;;;;;;;;8.00;5.00;;;;;;;;5124367;27;46128;-71
2022/11/25 10:03:02;;;;;;;;;8.67;4.67;;;;;;;;5117719;27;45768;-70
2022/11/25 10:05:33;;;;;;;;;7.00;4.67;;;;;;;;5118569;27;45405;-69
2022/11/25 10:08:02;;;;;;;;;8.33;7.00;;;;;;;;5116312;27;45521;-65
2022/11/25 10:10:29;;;;;;;;;4.33;4.33;;;;;;;;5117712;27;45749;-68
2022/11/25 10:12:56;;;;;;;;;5.67;3.33;;;;;;;;5127797;27;45760;-66
2022/11/25 10:15:38;;;;;;;;;9.33;4.67;;;;;;;;5116366;27;45526;-67
2022/11/25 10:18:05;;;;;;;;;5.33;4.00;;;;;;;;5117856;27;45462;-67
2022/11/25 10:20:34;;;;;;;;;3.00;2.33;;;;;;;;5125104;27;46375;-66
2022/11/25 10:23:01;;;;;;;;;9.00;6.67;;;;;;;;5115363;27;45730;-67
2022/11/25 10:25:28;;;;;;;;;3.00;3.00;;;;;;;;5112455;27;45458;-69
2022/11/25 10:28:01;;;;;;;;;7.33;4.67;;;;;;;;5127768;27;45973;-68
2022/11/25 10:30:49;;;;;;;;;4.33;4.33;;;;;;;;5127932;27;45870;-66
2022/11/25 10:33:19;;;;;;;;;5.33;4.33;;;;;;;;5123124;27;45494;-69
2022/11/25 10:35:59;;;;;;;;;3.33;3.33;;;;;;;;5124973;27;45388;-69
2022/11/25 10:38:40;;;;;;;;;7.00;4.00;;;;;;;;5120002;27;45591;-69
2022/11/25 10:41:05;;;;;;;;;7.00;3.00;;;;;;;;5127722;27;45252;-68
2022/11/25 10:43:31;;;;;;;;;4.00;4.00;;;;;;;;5123008;27;45380;-67
2022/11/25 10:46:14;;;;;;;;;8.67;5.00;;;;;;;;5122082;27;46009;-67
2022/11/25 10:48:53;;;;;;;;;6.67;6.67;;;;;;;;5116772;27;45779;-69
2022/11/25 10:51:18;;;;;;;;;5.33;4.67;;;;;;;;5111630;27;45857;-69
2022/11/25 10:54:04;;;;;;;;;2.67;2.67;;;;;;;;5103733;27;45472;-67
2022/11/25 10:56:29;;;;;;;;;3.67;3.33;;;;;;;;5123996;27;45506;-71
2022/11/25 10:58:54;;;;;;;;;9.00;5.00;;;;;;;;5121185;27;45659;-71
2022/11/25 11:01:20;;;;;;;;;6.00;3.50;;;;;;;;5126694;27;46226;-71
2022/11/25 11:04:17;;;;;;;;;4.33;4.33;;;;;;;;5120051;27;45567;-71
2022/11/25 11:06:43;;;;;;;;;6.67;3.00;;;;;;;;5115857;27;45505;-70
2022/11/25 11:09:30;;;;;;;;;6.67;4.00;;;;;;;;5119205;27;45430;-72
2022/11/25 11:11:55;;;;;;;;;3.67;2.00;;;;;;;;5116206;27;46458;-72
2022/11/25 11:14:20;;;;;;;;;6.00;4.00;;;;;;;;5115869;27;45394;-73
2022/11/25 11:16:53;;;;;;;;;6.33;3.33;;;;;;;;5118453;27;45573;-72
2022/11/25 11:19:26;;;;;;;;;4.33;3.67;;;;;;;;5115051;27;45677;-70
2022/11/25 11:21:51;;;;;;;;;5.67;4.00;;;;;;;;5118815;27;45554;-73
2022/11/25 11:24:25;;;;;;;;;6.33;3.33;;;;;;;;5109510;27;45927;-68
2022/11/25 11:27:04;;;;;;;;;5.00;3.00;;;;;;;;5112435;27;45527;-69
2022/11/25 11:29:29;;;;;;;;;4.00;3.00;;;;;;;;5125782;27;45658;-68
2022/11/25 11:32:03;;;;;;;;;8.67;3.00;;;;;;;;5111813;27;45992;-69
2022/11/25 11:34:52;;;;;;;;;8.33;3.67;;;;;;;;5124077;27;45465;-70
2022/11/25 11:37:27;;;;;;;;;4.67;3.00;;;;;;;;5112479;27;45743;-69
2022/11/25 11:40:02;;;;;;;;;1.67;0.00;;;;;;;;5123120;27;45443;-67
2022/11/25 11:42:30;;;;;;;;;5.33;3.00;;;;;;;;5123301;27;46717;-70
2022/11/25 11:45:14;;;;;;;;;5.67;3.33;;;;;;;;5100584;27;45927;-70
2022/11/25 11:47:48;;;;;;;;;5.75;3.50;;;;;;;;5122498;27;45753;-69
2022/11/25 11:50:22;;;;;;;;;2.00;2.00;;;;;;;;5117989;27;45634;-69
2022/11/25 11:52:54;;;;;;;;;1.00;1.00;;;;;;;;5108128;27;45431;-69
2022/11/25 11:55:19;;;;;;;;;5.00;3.67;;;;;;;;5122238;27;45782;-70
2022/11/25 11:57:59;;;;;;;;;4.67;3.00;;;;;;;;5123654;27;45786;-70
2022/11/25 12:00:25;;;;;;;;;5.00;3.00;;;;;;;;5121397;27;45381;-69
2022/11/25 12:03:09;;;;;;;;;4.67;3.00;;;;;;;;5101590;27;47509;-67
2022/11/25 12:05:36;;;;;;;;;4.67;2.00;;;;;;;;5121986;27;45457;-68
2022/11/25 12:08:07;;;;;;;;;6.67;4.00;;;;;;;;5122070;27;45524;-68
2022/11/25 12:10:42;;;;;;;;;10.00;3.00;;;;;;;;5126104;27;45604;-67
2022/11/25 12:13:26;;;;;;;;;4.33;3.00;;;;;;;;5123416;27;45528;-68
2022/11/25 12:15:54;;;;;;;;;4.67;3.00;;;;;;;;5126766;27;45970;-67
2022/11/25 12:18:31;;;;;;;;;5.00;3.00;;;;;;;;5130768;27;45684;-69
2022/11/25 12:21:04;;;;;;;;;7.67;4.00;;;;;;;;5125430;27;45294;-69
2022/11/25 12:23:43;;;;;;;;;3.00;3.00;;;;;;;;5118332;27;46348;-67
2022/11/25 12:26:16;;;;;;;;;8.67;3.67;;;;;;;;5120730;27;45337;-68
2022/11/25 12:28:54;;;;;;;;;5.00;3.00;;;;;;;;5122717;27;45516;-68
2022/11/25 12:31:19;;;;;;;;;2.67;2.67;;;;;;;;5126882;27;45812;-68
2022/11/25 12:33:50;;;;;;;;;2.67;2.33;;;;;;;;5125858;27;45493;-66
2022/11/25 12:36:17;;;;;;;;;7.00;5.00;;;;;;;;5115394;27;45842;-69
2022/11/25 12:38:53;;;;;;;;;3.33;3.33;;;;;;;;5114734;27;45706;-68
2022/11/25 12:41:30;;;;;;;;;6.67;2.67;;;;;;;;5117694;27;45798;-69
2022/11/25 12:44:06;;;;;;;;;4.00;3.00;;;;;;;;5125006;27;47210;-69
2022/11/25 12:46:38;;;;;;;;;6.33;2.67;;;;;;;;5116210;27;46045;-70
2022/11/25 12:49:05;;;;;;;;;8.33;5.33;;;;;;;;5115854;27;45891;-68
2022/11/25 12:51:42;;;;;;;;;8.00;3.00;;;;;;;;5118856;27;45499;-68
2022/11/25 12:54:23;;;;;;;;;5.33;3.67;;;;;;;;5122402;27;45674;-68
2022/11/25 12:56:51;;;;;;;;;5.00;1.67;;;;;;;;5096895;27;45399;-74
2022/11/25 12:59:23;;;;;;;;;8.00;4.00;;;;;;;;5116714;27;45800;-72
2022/11/25 13:01:56;;;;;;;;;4.00;2.00;;;;;;;;5115667;27;45759;-74
2022/11/25 13:04:31;;;;;;;;;12.00;6.67;;;;;;;;5119277;27;45676;-72
2022/11/25 13:06:56;;;;;;;;;2.67;2.00;;;;;;;;5116944;27;45577;-72
2022/11/25 13:09:21;;;;;;;;;2.33;2.33;;;;;;;;5103006;27;45557;-67
2022/11/25 13:12:02;;;;;;;;;6.33;4.33;;;;;;;;5116465;27;45760;-67
2022/11/25 13:14:50;;;;;;;;;4.67;3.00;;;;;;;;5121083;27;45831;-71
2022/11/25 13:17:15;;;;;;;;;7.33;4.67;;;;;;;;5122815;27;45974;-72
2022/11/25 13:19:41;;;;;;;;;5.67;4.67;;;;;;;;5109127;27;45838;-73
2022/11/25 13:22:22;;;;;;;;;4.00;1.00;;;;;;;;5120841;27;46289;-72
2022/11/25 13:24:48;;;;;;;;;6.00;4.00;;;;;;;;5103348;27;46417;-73
2022/11/25 13:27:28;;;;;;;;;4.67;3.00;;;;;;;;5121130;27;45807;-68
2022/11/25 13:29:54;;;;;;;;;7.33;3.00;;;;;;;;5115734;27;45723;-68
2022/11/25 13:32:30;;;;;;;;;7.67;4.00;;;;;;;;5121347;27;45301;-68
2022/11/25 13:35:24;;;;;;;;;6.67;4.00;;;;;;;;5117850;27;46900;-73
2022/11/25 13:37:50;;;;;;;;;3.00;2.00;;;;;;;;5107766;27;47024;-75
2022/11/25 13:40:18;;;;;;;;;3.33;3.33;;;;;;;;5124846;27;45817;-73
2022/11/25 13:42:43;;;;;;;;;4.67;3.00;;;;;;;;5139011;27;45648;-73
2022/11/25 13:45:23;;;;;;;;;2.00;2.00;;;;;;;;5103090;27;48482;-73
2022/11/25 13:47:49;;;;;;;;;7.67;3.33;;;;;;;;5134908;27;45340;-72
2022/11/25 13:50:14;;;;;;;;;9.33;3.33;;;;;;;;5126713;27;45361;-73
2022/11/25 13:52:46;;;;;;;;;6.33;2.67;;;;;;;;5126629;27;45421;-73
2022/11/25 13:55:17;;;;;;;;;4.67;3.00;;;;;;;;5120095;27;45689;-65
2022/11/25 13:57:47;;;;;;;;;6.33;3.33;;;;;;;;5114982;27;45469;-67
2022/11/25 14:00:18;;;;;;;;;5.33;3.33;;;;;;;;5132997;27;45344;-68
2022/11/25 14:02:44;;;;;;;;;7.33;3.00;;;;;;;;5132765;27;45733;-69
2022/11/25 14:05:15;;;;;;;;;3.67;2.00;;;;;;;;5126318;27;46287;-69
2022/11/25 14:07:59;;;;;;;;;1.33;1.33;;;;;;;;5117929;27;45501;-68
2022/11/25 14:10:43;;;;;;;;;5.00;2.00;;;;;;;;5103623;27;45889;-67
2022/11/25 14:13:27;;;;;;;;;6.33;2.00;;;;;;;;5132813;27;45548;-68
2022/11/25 14:15:53;;;;;;;;;3.33;2.33;;;;;;;;5114015;27;47890;-71
2022/11/25 14:18:36;;;;;;;;;3.25;2.50;;;;;;;;5130464;27;45327;-68
2022/11/25 14:21:11;;;;;;;;;3.33;2.00;;;;;;;;5128414;27;45494;-73
2022/11/25 14:23:53;;;;;;;;;6.33;3.33;;;;;;;;5122878;27;45664;-75
2022/11/25 14:26:26;;;;;;;;;6.67;3.67;;;;;;;;5134900;27;45428;-73
2022/11/25 14:29:05;;;;;;;;;5.67;4.33;;;;;;;;5115667;27;45971;-74
2022/11/25 14:31:43;;;;;;;;;5.00;3.67;;;;;;;;5101159;27;45756;-72
2022/11/25 14:34:11;;;;;;;;;2.67;2.67;;;;;;;;5126128;27;45691;-71
2022/11/25 14:36:42;;;;;;;;;6.33;2.00;;;;;;;;5121325;27;46653;-68
2022/11/25 14:39:10;;;;;;;;;3.33;3.33;;;;;;;;5092685;27;45458;-69
2022/11/25 14:41:39;;;;;;;;;5.00;3.00;;;;;;;;5117254;27;45533;-70
2022/11/25 14:44:10;;;;;;;;;5.00;2.67;;;;;;;;5122794;27;46049;-71
2022/11/25 14:46:49;;;;;;;;;3.00;2.00;;;;;;;;5121225;27;45437;-71
2022/11/25 14:49:14;;;;;;;;;3.33;1.00;;;;;;;;5133610;27;45707;-71
2022/11/25 14:51:40;;;;;;;;;7.33;2.67;;;;;;;;5130846;27;45544;-71
2022/11/25 14:54:08;;;;;;;;;2.00;2.00;;;;;;;;5104811;27;46601;-70
2022/11/25 14:56:35;;;;;;;;;4.33;2.00;;;;;;;;5132177;27;45652;-68
2022/11/25 14:59:01;;;;;;;;;5.00;1.00;;;;;;;;5116788;27;45668;-70
2022/11/25 15:01:28;;;;;;;;;5.00;2.67;;;;;;;;5130213;27;45601;-74